Time;durP1;ratioP1;P1;durP2;ratioP2;P2;SDS_P1;SDS_P2;PMS_P1;PMS_P2;Temp;Humidity;BMP_temperature;BMP_pressure;BME280_temperature;BME280_humidity;BME280_pressure;Samples;Min_cycle;Max_cycle;Signal;HPM_P1;HPM_P2
2023/05/28 00:02:35;;;;;;;12.73;5.80;;;;;;;11.25;100.00;100781.53;5026848;28;20689;-71
2023/05/28 00:05:01;;;;;;;9.73;6.07;;;;;;;11.24;100.00;100770.88;5029411;28;20206;-71
2023/05/28 00:07:28;;;;;;;9.57;5.73;;;;;;;11.23;100.00;100771.75;5027376;28;20291;-71
2023/05/28 00:09:55;;;;;;;12.60;5.63;;;;;;;11.23;100.00;100775.31;5024294;28;20205;-74
2023/05/28 00:12:22;;;;;;;11.17;5.47;;;;;;;11.22;100.00;100775.28;5029904;28;20222;-72
2023/05/28 00:14:48;;;;;;;10.13;5.00;;;;;;;11.22;100.00;100762.91;5033550;28;20199;-71
2023/05/28 00:17:17;;;;;;;9.00;4.63;;;;;;;11.20;100.00;100763.72;5031253;28;20228;-73
2023/05/28 00:19:44;;;;;;;9.00;5.03;;;;;;;11.16;100.00;100761.88;5032176;28;20207;-73
2023/05/28 00:22:11;;;;;;;11.13;5.03;;;;;;;11.10;100.00;100767.97;5032628;28;20264;-72
2023/05/28 00:24:38;;;;;;;10.13;4.70;;;;;;;11.02;100.00;100766.06;5033815;28;20196;-72
2023/05/28 00:27:05;;;;;;;7.47;4.67;;;;;;;10.91;100.00;100769.44;5029155;28;20230;-74
2023/05/28 00:29:32;;;;;;;6.37;4.47;;;;;;;10.80;100.00;100763.03;5025551;28;20285;-73
2023/05/28 00:31:58;;;;;;;7.63;5.67;;;;;;;10.72;100.00;100755.81;5032160;28;20350;-73
2023/05/28 00:34:25;;;;;;;12.00;5.23;;;;;;;10.66;100.00;100762.78;5032887;28;20305;-73
2023/05/28 00:36:53;;;;;;;13.37;5.70;;;;;;;10.71;100.00;100754.03;5025505;28;20202;-75
2023/05/28 00:39:20;;;;;;;9.40;4.93;;;;;;;10.65;100.00;100758.34;5027210;28;20282;-74
2023/05/28 00:41:47;;;;;;;9.57;4.73;;;;;;;10.62;100.00;100757.41;5033177;28;20202;-77
2023/05/28 00:44:13;;;;;;;7.93;4.47;;;;;;;10.59;100.00;100757.34;5032053;28;20194;-77
2023/05/28 00:46:42;;;;;;;8.37;5.00;;;;;;;10.54;100.00;100756.34;5032242;28;20207;-76
2023/05/28 00:49:12;;;;;;;10.53;4.50;;;;;;;10.50;100.00;100765.13;5018914;28;20205;-80
2023/05/28 00:51:39;;;;;;;8.57;4.83;;;;;;;10.45;100.00;100765.03;5030002;28;20605;-79
2023/05/28 00:54:06;;;;;;;9.13;5.10;;;;;;;10.42;100.00;100753.47;5031821;28;20231;-80
2023/05/28 00:56:32;;;;;;;9.87;5.17;;;;;;;10.42;100.00;100761.44;5030936;28;20253;-80
2023/05/28 00:59:04;;;;;;;10.30;5.33;;;;;;;10.40;100.00;100761.38;5026858;28;20206;-80
2023/05/28 01:01:31;;;;;;;9.13;5.10;;;;;;;10.38;100.00;100760.44;5029873;28;20558;-81
2023/05/28 01:04:00;;;;;;;8.87;4.53;;;;;;;10.35;100.00;100757.72;5032387;28;20567;-80
2023/05/28 01:06:28;;;;;;;6.73;4.63;;;;;;;10.35;100.00;100760.38;5025767;28;20217;-78
2023/05/28 01:08:56;;;;;;;8.50;5.07;;;;;;;10.35;100.00;100755.97;5032290;28;20247;-79
2023/05/28 01:11:24;;;;;;;9.13;5.03;;;;;;;10.35;100.00;100752.44;5032102;28;20660;-79
2023/05/28 01:13:53;;;;;;;8.77;4.80;;;;;;;10.36;100.00;100754.22;5027417;28;20227;-80
2023/05/28 01:16:21;;;;;;;10.60;5.20;;;;;;;10.35;100.00;100763.94;5029486;28;20201;-79
2023/05/28 01:18:48;;;;;;;8.90;5.13;;;;;;;10.35;100.00;100755.09;5032173;28;20284;-79
2023/05/28 01:21:15;;;;;;;9.77;5.67;;;;;;;10.35;100.00;100757.72;5032089;28;20209;-80
2023/05/28 01:23:45;;;;;;;7.73;4.50;;;;;;;10.35;100.00;100758.63;5024933;28;20195;-80
2023/05/28 01:26:13;;;;;;;8.53;5.10;;;;;;;10.32;100.00;100752.38;5028587;28;20685;-80
2023/05/28 01:28:44;;;;;;;10.27;5.13;;;;;;;10.34;100.00;100748.00;5030396;28;20700;-79
2023/05/28 01:31:11;;;;;;;9.63;5.00;;;;;;;10.60;100.00;100748.53;5032040;28;20205;-79
2023/05/28 01:33:38;;;;;;;7.33;4.37;;;;;;;10.60;100.00;100749.41;5025515;28;20214;-79
2023/05/28 01:36:08;;;;;;;8.03;4.67;;;;;;;10.49;100.00;100742.16;5031901;28;20204;-81
2023/05/28 01:38:38;;;;;;;9.00;5.03;;;;;;;10.43;100.00;100742.91;5030375;28;20211;-79
2023/05/28 01:41:05;;;;;;;9.47;4.73;;;;;;;10.45;100.00;100741.19;5019759;28;20761;-79
2023/05/28 01:43:32;;;;;;;8.87;4.37;;;;;;;10.49;100.00;100736.84;5026484;28;20198;-79
2023/05/28 01:45:59;;;;;;;9.07;4.23;;;;;;;10.46;100.00;100737.69;5030948;28;20677;-79
2023/05/28 01:48:27;;;;;;;6.83;4.23;;;;;;;10.43;100.00;100739.38;5030581;28;20249;-83
2023/05/28 01:50:53;;;;;;;6.23;4.47;;;;;;;10.38;100.00;100736.63;5022441;28;20302;-77
2023/05/28 01:53:20;;;;;;;9.03;4.77;;;;;;;10.30;100.00;100730.28;5022115;28;20224;-80
2023/05/28 01:55:46;;;;;;;6.93;4.50;;;;;;;10.26;100.00;100733.72;5028802;28;20734;-80
2023/05/28 01:58:13;;;;;;;8.80;4.30;;;;;;;10.22;100.00;100742.47;5030496;28;20319;-79
2023/05/28 02:00:47;;;;;;;8.93;4.67;;;;;;;10.21;100.00;100738.94;5022905;28;20284;-77
2023/05/28 02:03:14;;;;;;;9.03;4.30;;;;;;;10.16;100.00;100737.91;5025763;28;20191;-76
2023/05/28 02:05:40;;;;;;;7.73;4.37;;;;;;;10.07;100.00;100736.84;5031183;28;20200;-77
2023/05/28 02:08:07;;;;;;;6.57;4.00;;;;;;;10.01;100.00;100725.28;5028800;28;20228;-76
2023/05/28 02:10:33;;;;;;;8.63;4.23;;;;;;;9.94;100.00;100731.28;5027040;28;20191;-74
2023/05/28 02:13:00;;;;;;;7.10;4.47;;;;;;;9.87;100.00;100726.72;5031046;28;20226;-75
2023/05/28 02:15:26;;;;;;;9.60;4.37;;;;;;;9.85;100.00;100733.72;5027363;28;20198;-73
2023/05/28 02:17:56;;;;;;;7.47;4.63;;;;;;;9.83;100.00;100722.22;5030750;28;20248;-76
2023/05/28 02:20:22;;;;;;;10.93;4.70;;;;;;;9.91;100.00;100714.44;5030254;28;20200;-75
2023/05/28 02:22:49;;;;;;;6.93;4.23;;;;;;;9.89;100.00;100718.81;5028246;28;20205;-75
2023/05/28 02:25:15;;;;;;;8.20;4.80;;;;;;;9.85;100.00;100719.59;5031101;28;20200;-73
2023/05/28 02:27:42;;;;;;;9.80;4.27;;;;;;;9.83;100.00;100716.94;5030788;28;20215;-72
2023/05/28 02:30:13;;;;;;;6.40;4.33;;;;;;;9.73;100.00;100717.59;5030804;28;20747;-71
2023/05/28 02:32:39;;;;;;;8.40;4.53;;;;;;;9.63;100.00;100716.50;5028250;28;20254;-71
2023/05/28 02:35:07;;;;;;;8.33;4.67;;;;;;;9.54;100.00;100720.66;5030082;28;20211;-72
2023/05/28 02:37:33;;;;;;;9.03;4.33;;;;;;;9.48;100.00;100715.25;5030484;28;20215;-69
2023/05/28 02:40:00;;;;;;;8.60;4.40;;;;;;;9.40;100.00;100721.25;5025108;28;20198;-67
2023/05/28 02:42:26;;;;;;;8.60;4.10;;;;;;;9.34;100.00;100715.84;5030316;28;20678;-69
2023/05/28 02:44:53;;;;;;;9.47;4.80;;;;;;;9.29;100.00;100722.75;5029629;28;20216;-69
2023/05/28 02:47:19;;;;;;;7.20;3.97;;;;;;;9.21;100.00;100719.06;5028900;28;20226;-70
2023/05/28 02:49:46;;;;;;;7.47;4.33;;;;;;;9.11;100.00;100720.56;5030529;28;20283;-69
2023/05/28 02:52:15;;;;;;;8.57;4.43;;;;;;;9.06;100.00;100718.66;5030352;28;20279;-69
2023/05/28 02:54:42;;;;;;;6.37;3.97;;;;;;;9.00;100.00;100718.50;5026508;28;20311;-69
2023/05/28 02:57:08;;;;;;;7.47;3.77;;;;;;;8.93;100.00;100720.13;5029680;28;20238;-69
2023/05/28 02:59:34;;;;;;;10.40;4.53;;;;;;;8.89;100.00;100720.00;5030839;28;20245;-69
2023/05/28 03:02:02;;;;;;;9.70;4.50;;;;;;;8.87;100.00;100721.72;5028010;28;20199;-70
2023/05/28 03:04:28;;;;;;;11.73;4.57;;;;;;;8.86;100.00;100720.81;5029928;28;20917;-70
2023/05/28 03:06:55;;;;;;;8.57;4.40;;;;;;;8.86;100.00;100725.22;5030187;28;20234;-70
2023/05/28 03:09:21;;;;;;;8.80;4.50;;;;;;;8.86;100.00;100720.81;5029050;28;20199;-69
2023/05/28 03:11:47;;;;;;;10.00;4.47;;;;;;;8.88;100.00;100721.75;5028601;28;20288;-69
2023/05/28 03:14:14;;;;;;;9.37;4.30;;;;;;;8.95;100.00;100725.44;5029419;28;20219;-70
2023/05/28 03:16:40;;;;;;;10.63;4.57;;;;;;;9.07;100.00;100731.00;5029989;28;20199;-70
2023/05/28 03:19:06;;;;;;;8.93;4.30;;;;;;;9.03;100.00;100730.03;5028409;28;20195;-71
2023/05/28 03:21:33;;;;;;;8.27;4.33;;;;;;;8.98;100.00;100733.44;5029205;28;20199;-69
2023/05/28 03:23:59;;;;;;;9.30;4.03;;;;;;;8.94;100.00;100734.22;5029152;28;20199;-69
2023/05/28 03:26:26;;;;;;;6.03;3.93;;;;;;;9.08;100.00;100733.69;5030089;28;20206;-70
2023/05/28 03:28:52;;;;;;;8.60;4.50;;;;;;;9.04;100.00;100733.56;5027744;28;20239;-69
2023/05/28 03:31:20;;;;;;;11.20;4.70;;;;;;;9.25;100.00;100726.19;5030062;28;20215;-70
2023/05/28 03:33:46;;;;;;;8.53;4.43;;;;;;;9.16;100.00;100727.69;5029638;28;20229;-71
2023/05/28 03:36:12;;;;;;;7.20;4.30;;;;;;;9.11;100.00;100727.59;5027531;28;20203;-69
2023/05/28 03:38:39;;;;;;;7.33;4.20;;;;;;;9.06;100.00;100730.13;5025382;28;20728;-69
2023/05/28 03:41:05;;;;;;;8.00;4.43;;;;;;;9.02;100.00;100730.00;5029598;28;20470;-73
2023/05/28 03:43:33;;;;;;;9.83;4.43;;;;;;;9.00;100.00;100727.31;5029568;28;20209;-71
2023/05/28 03:46:00;;;;;;;8.43;4.70;;;;;;;9.03;100.00;100730.03;5025500;28;20219;-71
2023/05/28 03:48:26;;;;;;;5.87;4.17;;;;;;;9.06;100.00;100726.59;5029154;28;20371;-69
2023/05/28 03:50:53;;;;;;;7.83;4.67;;;;;;;9.07;100.00;100731.00;5029565;28;20193;-70
2023/05/28 03:53:19;;;;;;;8.10;4.60;;;;;;;9.16;100.00;100725.06;5029326;28;20709;-69
2023/05/28 03:55:46;;;;;;;7.43;4.20;;;;;;;9.31;100.00;100721.06;5027828;28;20307;-69
2023/05/28 03:58:14;;;;;;;9.00;4.50;;;;;;;9.32;100.00;100732.50;5028098;28;20237;-69
2023/05/28 04:00:40;;;;;;;8.60;4.80;;;;;;;9.35;100.00;100729.94;5027325;28;20195;-69
2023/05/28 04:03:07;;;;;;;6.80;4.40;;;;;;;9.41;100.00;100728.31;5024962;28;20211;-70
2023/05/28 04:05:34;;;;;;;9.03;4.77;;;;;;;9.47;100.00;100729.31;5029972;28;20294;-69
2023/05/28 04:08:01;;;;;;;8.20;4.30;;;;;;;9.55;100.00;100733.03;5029271;28;20306;-69
2023/05/28 04:10:27;;;;;;;7.13;4.37;;;;;;;9.62;100.00;100725.31;5029132;28;20294;-71
2023/05/28 04:12:54;;;;;;;5.20;3.80;;;;;;;9.69;100.00;100734.25;5026484;28;20218;-70
2023/05/28 04:15:21;;;;;;;8.57;4.80;;;;;;;9.76;100.00;100737.94;5028665;28;20229;-70
2023/05/28 04:17:47;;;;;;;10.60;5.03;;;;;;;9.81;100.00;100731.88;5029238;28;20298;-70
2023/05/28 04:20:14;;;;;;;8.27;5.07;;;;;;;9.88;100.00;100725.84;5029301;28;20667;-69
2023/05/28 04:22:40;;;;;;;9.60;4.67;;;;;;;9.99;100.00;100723.44;5024918;28;20646;-69
2023/05/28 04:25:07;;;;;;;10.00;5.27;;;;;;;10.08;100.00;100722.75;5029410;28;20201;-69
2023/05/28 04:27:34;;;;;;;8.93;5.30;;;;;;;10.15;100.00;100724.66;5028573;28;20248;-70
2023/05/28 04:30:00;;;;;;;10.20;5.43;;;;;;;10.22;100.00;100731.88;5029236;28;20672;-71
2023/05/28 04:32:27;;;;;;;10.97;5.87;;;;;;;10.31;100.00;100729.41;5028175;28;20610;-70
2023/05/28 04:34:54;;;;;;;10.13;5.57;;;;;;;10.49;100.00;100728.91;5028596;28;20227;-69
2023/05/28 04:37:21;;;;;;;9.97;5.97;;;;;;;10.58;100.00;100731.72;5029390;28;20251;-71
2023/05/28 04:39:48;;;;;;;10.10;5.77;;;;;;;10.67;100.00;100732.78;5028503;28;20196;-72
2023/05/28 04:42:17;;;;;;;10.47;6.10;;;;;;;10.87;100.00;100733.16;5027980;28;20221;-72
2023/05/28 04:44:44;;;;;;;11.27;6.03;;;;;;;11.03;100.00;100736.94;5029015;28;20220;-73
2023/05/28 04:47:11;;;;;;;13.33;6.77;;;;;;;11.19;100.00;100736.31;5027376;28;20260;-73
2023/05/28 04:49:40;;;;;;;15.10;6.43;;;;;;;11.29;100.00;100734.72;5027033;28;20193;-73
2023/05/28 04:52:07;;;;;;;12.60;6.10;;;;;;;11.34;100.00;100745.41;5026892;28;20245;-78
2023/05/28 04:54:34;;;;;;;13.40;7.37;;;;;;;11.42;100.00;100744.66;5028432;28;20213;-76
2023/05/28 04:59:40;;;;;;;9.83;5.70;;;;;;;11.59;100.00;100740.50;5046732;28;20207;-68
2023/05/28 05:02:08;;;;;;;12.33;6.00;;;;;;;11.68;100.00;100739.75;5051951;28;20223;-69
2023/05/28 05:04:35;;;;;;;12.00;6.80;;;;;;;11.78;100.00;100735.50;5052474;28;20199;-68
2023/05/28 05:07:01;;;;;;;15.13;6.87;;;;;;;11.97;100.00;100736.63;5048690;28;20198;-67
2023/05/28 05:09:30;;;;;;;11.37;6.73;;;;;;;12.12;100.00;100732.44;5052658;28;20225;-68
2023/05/28 05:11:56;;;;;;;10.90;6.03;;;;;;;12.22;100.00;100736.06;5049817;28;20200;-70
2023/05/28 05:14:23;;;;;;;12.97;6.23;;;;;;;12.26;100.00;100729.03;5051422;28;20305;-68
2023/05/28 05:16:49;;;;;;;11.33;6.10;;;;;;;12.42;100.00;100733.69;5047477;28;20285;-69
2023/05/28 05:19:16;;;;;;;11.93;5.63;;;;;;;12.58;100.00;100738.28;5052021;28;20220;-67
2023/05/28 05:21:42;;;;;;;11.70;6.03;;;;;;;12.69;98.83;100736.59;5051257;28;20195;-67
2023/05/28 05:24:08;;;;;;;10.10;6.07;;;;;;;12.80;98.45;100740.25;5046810;28;20194;-67
2023/05/28 05:26:35;;;;;;;10.40;5.30;;;;;;;12.90;97.23;100735.06;5046235;28;20203;-67
2023/05/28 05:29:01;;;;;;;10.50;5.50;;;;;;;13.00;97.34;100735.16;5052149;28;20230;-68
2023/05/28 05:31:27;;;;;;;11.83;6.03;;;;;;;13.06;96.02;100739.63;5050559;28;20191;-70
2023/05/28 05:33:54;;;;;;;10.63;5.07;;;;;;;13.17;95.49;100738.88;5049121;28;20226;-68
2023/05/28 05:36:20;;;;;;;12.97;6.10;;;;;;;13.30;94.50;100736.31;5052066;28;20200;-68
2023/05/28 05:38:47;;;;;;;9.80;5.63;;;;;;;13.40;93.43;100740.84;5052000;28;20215;-69
2023/05/28 05:41:14;;;;;;;9.40;5.73;;;;;;;13.64;91.68;100740.13;5050242;28;20213;-68
2023/05/28 05:43:40;;;;;;;10.10;6.40;;;;;;;13.90;91.25;100743.81;5050900;28;20197;-68
2023/05/28 05:46:07;;;;;;;9.63;5.47;;;;;;;14.01;90.48;100744.78;5051904;28;20204;-68
2023/05/28 05:48:33;;;;;;;9.50;5.47;;;;;;;14.26;89.93;100736.88;5048219;28;20223;-68
2023/05/28 05:51:02;;;;;;;9.17;5.20;;;;;;;14.45;87.38;100732.56;5051594;28;20252;-67
2023/05/28 05:53:29;;;;;;;9.83;5.07;;;;;;;14.73;86.06;100734.41;5051294;28;20195;-70
2023/05/28 05:55:55;;;;;;;10.83;5.73;;;;;;;15.00;84.80;100738.88;5047948;28;20924;-68
2023/05/28 05:58:22;;;;;;;10.87;5.47;;;;;;;15.20;83.87;100731.78;5050008;28;20710;-68
2023/05/28 06:00:48;;;;;;;9.70;5.10;;;;;;;15.21;84.21;100724.66;5051556;28;20204;-69
2023/05/28 06:03:15;;;;;;;9.67;4.93;;;;;;;15.21;82.62;100738.00;5051544;28;20203;-68
2023/05/28 06:05:42;;;;;;;9.53;4.97;;;;;;;15.20;82.27;100730.88;5049362;28;20290;-68
2023/05/28 06:08:08;;;;;;;12.53;4.80;;;;;;;15.27;81.69;100738.91;5049010;28;20310;-68
2023/05/28 06:10:34;;;;;;;10.03;4.90;;;;;;;15.31;81.63;100734.47;5047618;28;20448;-68
2023/05/28 06:13:01;;;;;;;9.50;4.77;;;;;;;15.44;80.63;100736.22;5048007;28;20199;-69
2023/05/28 06:15:28;;;;;;;9.20;5.10;;;;;;;15.82;79.24;100721.94;5050720;28;20246;-68
2023/05/28 06:17:55;;;;;;;12.00;5.40;;;;;;;16.10;77.71;100730.78;5051020;28;20473;-68
2023/05/28 06:20:22;;;;;;;9.40;4.13;;;;;;;16.45;76.17;100736.88;5049232;28;20199;-67
2023/05/28 06:22:49;;;;;;;7.27;4.23;;;;;;;16.61;75.27;100738.53;5046550;28;20204;-68
2023/05/28 06:25:16;;;;;;;9.73;4.37;;;;;;;16.65;72.52;100736.75;5050927;28;20202;-68
2023/05/28 06:27:42;;;;;;;6.93;4.10;;;;;;;16.64;72.81;100740.31;5050814;28;20599;-70
2023/05/28 06:30:10;;;;;;;6.77;4.20;;;;;;;16.66;74.05;100743.91;5048482;28;20289;-68
2023/05/28 06:32:36;;;;;;;10.83;4.40;;;;;;;16.74;74.06;100742.06;5043762;28;20270;-68
2023/05/28 06:35:03;;;;;;;10.20;3.90;;;;;;;16.82;69.01;100739.38;5049886;28;20215;-68
2023/05/28 06:37:29;;;;;;;8.97;3.77;;;;;;;16.95;70.34;100745.50;5050832;28;20230;-68
2023/05/28 06:39:56;;;;;;;9.63;3.93;;;;;;;17.05;70.32;100749.88;5047068;28;20199;-68
2023/05/28 06:42:22;;;;;;;9.10;3.57;;;;;;;17.17;68.35;100741.75;5049422;28;20199;-68
2023/05/28 06:44:49;;;;;;;8.70;3.40;;;;;;;17.27;67.13;100738.13;5049811;28;20195;-68
2023/05/28 06:47:15;;;;;;;7.53;3.53;;;;;;;17.40;66.07;100744.25;5046461;28;20197;-68
2023/05/28 06:49:42;;;;;;;6.73;3.63;;;;;;;17.58;65.24;100744.06;5050602;28;20191;-71
2023/05/28 06:52:08;;;;;;;7.37;3.50;;;;;;;17.70;63.95;100730.63;5050568;28;20286;-70
2023/05/28 06:54:34;;;;;;;6.23;3.70;;;;;;;17.81;64.86;100728.69;5049847;28;20305;-68
2023/05/28 06:57:01;;;;;;;10.07;3.83;;;;;;;17.94;66.00;100733.91;5048826;28;20293;-68
2023/05/28 06:59:27;;;;;;;6.90;3.57;;;;;;;18.20;63.43;100739.88;5049464;28;20578;-68
2023/05/28 07:01:54;;;;;;;6.67;3.63;;;;;;;18.90;59.92;100738.97;5050335;28;20213;-67
2023/05/28 07:04:20;;;;;;;9.67;3.90;;;;;;;20.61;50.05;100747.47;5050797;28;20199;-68
2023/05/28 07:06:47;;;;;;;5.53;3.20;;;;;;;22.43;42.57;100735.66;5046599;28;20298;-70
2023/05/28 07:09:13;;;;;;;8.23;3.73;;;;;;;24.36;39.41;100747.19;5049432;28;20210;-68
2023/05/28 07:11:39;;;;;;;9.20;4.23;;;;;;;25.66;38.32;100735.69;5049936;28;20670;-68
2023/05/28 07:14:06;;;;;;;7.83;4.23;;;;;;;27.07;35.88;100739.16;5045720;28;20205;-68
2023/05/28 07:16:32;;;;;;;8.20;4.37;;;;;;;27.68;34.41;100741.53;5045390;28;20194;-68
2023/05/28 07:18:59;;;;;;;7.85;3.97;;;;;;;28.83;32.37;100736.22;5048758;28;20219;-69
2023/05/28 07:21:25;;;;;;;6.40;3.95;;;;;;;29.49;31.04;100746.97;5049354;28;21010;-68
2023/05/28 07:23:52;;;;;;;8.82;4.25;;;;;;;29.88;29.61;100738.22;5050321;28;20576;-68
2023/05/28 07:26:18;;;;;;;6.22;3.63;;;;;;;29.95;28.85;100743.19;5047648;28;20529;-68
2023/05/28 07:28:45;;;;;;;7.25;3.65;;;;;;;30.15;28.28;100735.69;5048492;28;20784;-68
2023/05/28 07:31:11;;;;;;;8.60;3.85;;;;;;;30.40;28.16;100744.06;5049817;28;20199;-69
2023/05/28 07:33:39;;;;;;;4.55;3.05;;;;;;;30.85;26.63;100745.75;5047330;28;20734;-68
2023/05/28 07:36:06;;;;;;;6.70;3.40;;;;;;;30.06;26.51;100747.19;5048653;28;20215;-70
2023/05/28 07:38:32;;;;;;;6.68;3.28;;;;;;;28.71;27.85;100745.94;5049931;28;20234;-68
2023/05/28 07:40:58;;;;;;;6.50;3.20;;;;;;;27.17;30.39;100743.16;5049845;28;20213;-69
2023/05/28 07:43:25;;;;;;;5.60;3.40;;;;;;;27.32;30.17;100746.97;5043783;28;20199;-68
2023/05/28 07:45:51;;;;;;;6.20;3.50;;;;;;;27.27;30.13;100741.78;5048803;28;20669;-69
2023/05/28 07:48:18;;;;;;;5.05;3.28;;;;;;;27.67;29.88;100737.06;5048043;28;20214;-68
2023/05/28 07:50:44;;;;;;;7.85;3.58;;;;;;;28.50;28.37;100741.72;5048536;28;20659;-68
2023/05/28 07:53:11;;;;;;;7.50;3.35;;;;;;;28.21;28.79;100737.81;5042079;28;20281;-68
2023/05/28 07:55:38;;;;;;;8.25;4.00;;;;;;;27.75;28.65;100738.41;5049692;28;20221;-68
2023/05/28 07:58:05;;;;;;;5.70;3.58;;;;;;;27.59;29.04;100734.66;5048246;28;20718;-68
2023/05/28 08:00:32;;;;;;;8.80;3.65;;;;;;;28.15;28.50;100746.31;5043622;28;20626;-70
2023/05/28 08:02:59;;;;;;;5.68;3.55;;;;;;;28.01;28.48;100741.59;5049663;28;20654;-68
2023/05/28 08:05:25;;;;;;;5.35;3.05;;;;;;;28.38;27.93;100745.97;5049829;28;20992;-68
2023/05/28 08:07:52;;;;;;;7.30;3.58;;;;;;;27.78;28.53;100737.38;5049742;28;20218;-68
2023/05/28 08:10:18;;;;;;;8.52;3.90;;;;;;;27.14;29.33;100738.75;5046668;28;20191;-70
2023/05/28 08:12:45;;;;;;;7.43;3.60;;;;;;;27.17;30.04;100735.88;5049612;28;20241;-67
2023/05/28 08:15:11;;;;;;;7.90;3.55;;;;;;;26.93;29.14;100738.91;5049457;28;20215;-68
2023/05/28 08:17:37;;;;;;;7.38;3.60;;;;;;;26.60;30.29;100728.69;5045802;28;20221;-68
2023/05/28 08:20:06;;;;;;;8.68;3.55;;;;;;;26.22;30.75;100725.03;5047340;28;20207;-68
2023/05/28 08:22:32;;;;;;;9.02;3.92;;;;;;;26.18;30.44;100727.00;5049356;28;20245;-68
2023/05/28 08:24:59;;;;;;;7.53;3.85;;;;;;;25.87;31.55;100723.91;5048155;28;20566;-70
2023/05/28 08:27:26;;;;;;;7.10;3.85;;;;;;;24.69;32.73;100730.59;5046459;28;20227;-68
2023/05/28 08:29:52;;;;;;;6.40;3.60;;;;;;;24.04;34.12;100725.84;5049170;28;20210;-68
2023/05/28 08:32:19;;;;;;;9.07;4.15;;;;;;;23.83;34.71;100718.50;5049468;28;20191;-70
2023/05/28 08:34:46;;;;;;;6.07;3.60;;;;;;;23.49;34.27;100718.75;5049562;28;20309;-68
2023/05/28 08:37:13;;;;;;;8.85;4.18;;;;;;;23.75;34.40;100716.06;5050774;28;20197;-68
2023/05/28 08:39:39;;;;;;;6.63;3.53;;;;;;;23.71;35.69;100717.13;5051525;28;20205;-69
2023/05/28 08:42:06;;;;;;;6.53;3.63;;;;;;;23.62;35.55;100721.03;5046297;28;20206;-70
2023/05/28 08:44:33;;;;;;;6.38;4.20;;;;;;;23.35;35.19;100721.94;5053059;28;20252;-69
2023/05/28 08:47:00;;;;;;;8.63;3.92;;;;;;;23.37;35.92;100712.84;5051875;28;20195;-68
2023/05/28 08:49:32;;;;;;;7.03;3.67;;;;;;;23.32;36.45;100719.34;5053087;28;20225;-70
2023/05/28 08:52:04;;;;;;;9.75;3.85;;;;;;;23.54;35.15;100712.25;5051063;28;20230;-68
2023/05/28 08:54:33;;;;;;;6.50;3.78;;;;;;;23.74;34.55;100707.06;5052927;28;20209;-68
2023/05/28 08:57:00;;;;;;;7.97;4.00;;;;;;;23.97;34.26;100708.03;5052563;28;20238;-68
2023/05/28 08:59:27;;;;;;;6.57;3.97;;;;;;;24.06;34.36;100707.72;5047070;28;20595;-69
2023/05/28 09:01:55;;;;;;;7.05;3.38;;;;;;;24.06;34.09;100707.72;5051119;28;20206;-70
2023/05/28 09:04:22;;;;;;;8.90;3.83;;;;;;;24.12;34.75;100712.03;5052881;28;20272;-68
2023/05/28 09:06:52;;;;;;;7.55;3.80;;;;;;;24.03;35.11;100711.44;5046306;28;20209;-68
2023/05/28 09:09:20;;;;;;;6.82;3.75;;;;;;;24.33;34.40;100704.00;5052458;28;20246;-68
2023/05/28 09:11:47;;;;;;;9.38;4.07;;;;;;;24.52;35.56;100706.00;5050903;28;20206;-70
2023/05/28 09:14:15;;;;;;;6.20;3.88;;;;;;;24.72;33.98;100706.09;5051733;28;20230;-68
2023/05/28 09:16:43;;;;;;;9.07;4.05;;;;;;;24.75;33.52;100703.25;5050311;28;20237;-70
2023/05/28 09:19:14;;;;;;;6.53;3.63;;;;;;;24.87;33.62;100694.66;5052509;28;20918;-68
2023/05/28 09:21:53;;;;;;;6.75;3.70;;;;;;;24.75;34.54;100694.25;5052785;28;20198;-69
2023/05/28 09:24:20;;;;;;;7.32;3.60;;;;;;;24.71;34.29;100695.31;5045913;28;20739;-69
2023/05/28 09:26:47;;;;;;;8.32;3.83;;;;;;;24.77;33.82;100690.53;5052825;28;20286;-71
2023/05/28 09:29:13;;;;;;;8.90;3.80;;;;;;;24.90;34.20;100699.94;5052414;28;20218;-69
2023/05/28 09:31:40;;;;;;;6.40;3.75;;;;;;;24.35;33.24;100688.56;5050644;28;20198;-69
2023/05/28 09:34:07;;;;;;;7.35;4.00;;;;;;;24.54;33.98;100691.47;5048915;28;20200;-70
2023/05/28 09:36:36;;;;;;;9.23;3.90;;;;;;;24.69;34.24;100681.84;5052387;28;20218;-70
2023/05/28 09:39:07;;;;;;;7.05;3.95;;;;;;;24.99;33.42;100687.88;5049918;28;20238;-69
2023/05/28 09:41:34;;;;;;;7.38;3.53;;;;;;;25.15;34.07;100679.97;5050928;28;20197;-71
2023/05/28 09:44:02;;;;;;;8.40;3.67;;;;;;;25.02;33.08;100686.88;5050506;28;20293;-69
2023/05/28 09:46:31;;;;;;;6.10;3.90;;;;;;;25.02;33.34;100671.47;5051850;28;20278;-70
2023/05/28 09:48:58;;;;;;;8.90;4.13;;;;;;;24.98;33.05;100675.28;5051644;28;20215;-69
2023/05/28 09:51:28;;;;;;;8.32;3.97;;;;;;;24.78;33.46;100672.44;5045028;28;20662;-68
2023/05/28 09:53:57;;;;;;;7.53;3.95;;;;;;;24.67;33.74;100667.47;5051859;28;20198;-70
2023/05/28 09:56:29;;;;;;;8.93;3.80;;;;;;;24.56;33.98;100669.72;5049315;28;20696;-67
2023/05/28 09:59:01;;;;;;;8.63;4.15;;;;;;;24.46;34.29;100673.75;5048203;28;20234;-68
2023/05/28 10:01:33;;;;;;;10.57;3.65;;;;;;;24.43;34.19;100677.47;5049233;28;20190;-69
2023/05/28 10:04:10;;;;;;;9.10;4.07;;;;;;;24.85;34.23;100665.84;5051717;28;20194;-69
2023/05/28 10:06:38;;;;;;;7.47;4.10;;;;;;;25.18;34.06;100663.56;5049707;28;20195;-69
2023/05/28 10:09:06;;;;;;;9.38;3.75;;;;;;;25.35;32.00;100661.03;5049793;28;20310;-68
2023/05/28 10:11:43;;;;;;;7.45;4.07;;;;;;;25.69;31.79;100657.78;5051343;28;20650;-68
2023/05/28 10:14:11;;;;;;;8.45;4.15;;;;;;;25.53;31.25;100659.34;5051265;28;20260;-69
2023/05/28 10:16:38;;;;;;;9.55;3.85;;;;;;;25.50;32.08;100662.19;5050300;28;20223;-69
2023/05/28 10:19:05;;;;;;;7.38;4.50;;;;;;;25.53;31.46;100662.06;5046435;28;20223;-67
2023/05/28 10:21:32;;;;;;;7.55;3.90;;;;;;;25.77;31.31;100662.84;5044875;28;20305;-71
2023/05/28 10:23:59;;;;;;;8.57;3.90;;;;;;;25.97;30.46;100657.38;5047109;28;20199;-68
2023/05/28 10:26:26;;;;;;;8.68;4.00;;;;;;;25.93;29.44;100648.50;5049618;28;22001;-68
2023/05/28 10:28:55;;;;;;;7.53;4.10;;;;;;;25.79;28.17;100660.94;5051144;28;20313;-69
2023/05/28 10:31:23;;;;;;;5.93;3.85;;;;;;;25.85;28.49;100660.66;5049782;28;20209;-71
2023/05/28 10:33:50;;;;;;;6.43;3.60;;;;;;;26.06;29.26;100659.69;5049669;28;20205;-71
2023/05/28 10:36:17;;;;;;;8.65;4.38;;;;;;;25.89;28.57;100660.44;5050458;28;20416;-71
2023/05/28 10:38:52;;;;;;;6.45;3.92;;;;;;;26.02;28.76;100660.78;5051128;28;20214;-68
2023/05/28 10:41:23;;;;;;;5.70;4.13;;;;;;;26.06;26.64;100656.97;5050009;28;20229;-68
2023/05/28 10:43:52;;;;;;;8.35;3.83;;;;;;;26.25;27.71;100654.28;5045169;28;20201;-69
2023/05/28 10:46:22;;;;;;;7.32;3.97;;;;;;;25.99;26.38;100657.31;5050734;28;20190;-70
2023/05/28 10:49:09;;;;;;;6.30;3.88;;;;;;;25.76;26.72;100658.38;5050781;28;20610;-70
2023/05/28 10:51:54;;;;;;;6.47;3.63;;;;;;;26.06;27.06;100650.69;5049323;28;20683;-69
2023/05/28 10:54:33;;;;;;;6.22;3.75;;;;;;;26.23;25.79;100650.75;5048358;28;20260;-68
2023/05/28 10:57:17;;;;;;;6.32;4.10;;;;;;;26.17;25.00;100651.03;5041911;28;20219;-69
2023/05/28 10:59:50;;;;;;;8.13;3.90;;;;;;;26.31;25.20;100651.25;5014395;22;20224;-70
2023/05/28 11:02:33;;;;;;;7.70;4.07;;;;;;;26.49;24.65;100657.72;4983448;28;20658;-70
2023/05/28 11:05:02;;;;;;;7.50;3.53;;;;;;;26.43;25.01;100645.31;4991274;28;20220;-70
2023/05/28 11:07:33;;;;;;;9.05;4.00;;;;;;;26.62;25.57;100641.69;4989187;28;20223;-71
2023/05/28 11:10:01;;;;;;;6.80;3.30;;;;;;;26.75;24.52;100634.69;4970173;28;20209;-71
2023/05/28 11:12:30;;;;;;;7.05;3.65;;;;;;;26.88;23.85;100640.41;4954983;28;20202;-70
2023/05/28 11:14:57;;;;;;;5.90;3.25;;;;;;;26.81;24.12;100634.38;4961457;28;20205;-70
2023/05/28 11:17:24;;;;;;;5.57;3.53;;;;;;;26.50;24.23;100637.75;4958882;28;20197;-70
2023/05/28 11:19:51;;;;;;;7.78;3.75;;;;;;;26.66;24.26;100625.16;4971562;28;20218;-69
2023/05/28 11:22:19;;;;;;;6.35;3.58;;;;;;;26.96;25.10;100632.75;4969130;28;20197;-70
2023/05/28 11:24:55;;;;;;;7.82;3.80;;;;;;;27.14;25.22;100627.25;4966521;28;20198;-70
2023/05/28 11:27:25;;;;;;;8.45;4.38;;;;;;;27.23;25.80;100620.50;4966658;28;20697;-70